Flight Track Log - Related Links

Times and Time Zones

All times are in EDT time to prevent confusion due to time zone crossing. See the XOJ793 flight status page for this flight to view local times or setup timezone preferences in your user account.

Time Position Orientation Groundspeed Altitude Reporting Facility
EDT Latitude Longitude Course Direction KTS MPH feet Rate Location/Type
Thu 02:07:34 PM 47.4650 -122.2350 143° Southeast 222 255 3,000  Level Seattle Center
Thu 02:08:35 PM 47.3986 -122.1931 157° South 264 304 6,800 3,600 Climbing Seattle Center
Thu 02:09:34 PM 47.3286 -122.1847 175° South 268 308 10,200 3,100 Climbing Seattle Center
Thu 02:10:35 PM 47.2442 -122.1717 174° South 301 346 13,000 2,585 Climbing Seattle Center
Thu 02:11:37 PM 47.1394 -122.1397 168° South 354 407 15,500 2,341 Climbing Seattle Center
Thu 02:12:38 PM 47.0361 -122.1092 169° South 376 433 17,800 2,049 Climbing Seattle Center
Thu 02:13:40 PM 46.9422 -122.0819 169° South 379 436 19,700 2,098 Climbing Seattle Center
Thu 02:14:41 PM 46.8339 -122.0478 168° South 393 452 22,100 2,634 Climbing Seattle Center
Thu 02:15:43 PM 46.7014 -122.0089 169° South 400 460 25,100 2,634 Climbing Seattle Center
Thu 02:16:44 PM 46.5875 -121.9758 169° South 413 475 27,500 2,262 Climbing Seattle Center
Thu 02:17:45 PM 46.4697 -121.9283 164° South 433 498 29,700 2,098 Climbing Seattle Center
Thu 02:18:47 PM 46.3467 -121.8811 165° South 453 521 31,800 2,098 Climbing Seattle Center
Thu 02:19:48 PM 46.2094 -121.8314 166° South 466 536 34,000 2,000 Climbing Seattle Center
Thu 02:20:50 PM 46.0806 -121.7828 165° South 476 548 35,900 1,645 Climbing Seattle Center
Thu 02:21:52 PM 45.9444 -121.7292 165° South 477 549 37,400 1,268 Climbing Seattle Center
Thu 02:22:53 PM 45.8189 -121.6833 166° South 492 566 38,500 1,122 Climbing Seattle Center
Thu 02:23:55 PM 45.6861 -121.6339 165° South 496 571 39,700 1,415 Climbing Seattle Center
Thu 02:24:56 PM 45.5533 -121.5844 165° South 496 571 41,400 1,415 Climbing Seattle Center
Thu 02:25:58 PM 45.4264 -121.5372 165° South 481 554 42,600 927 Climbing Seattle Center
Thu 02:26:59 PM 45.2750 -121.4808 165° South 473 544 43,300 537 Climbing Seattle Center
Thu 02:28:01 PM 45.1472 -121.4342 166° South 474 545 43,700 390 Climbing Seattle Center
Thu 02:29:02 PM 45.0178 -121.3894 166° South 478 550 44,100 439 Climbing Seattle Center
Thu 02:30:04 PM 44.8831 -121.3431 166° South 478 550 44,600 390 Climbing Seattle Center
Thu 02:31:05 PM 44.7525 -121.2983 166° South 479 551 44,900 195 Climbing Seattle Center
Thu 02:32:07 PM 44.6214 -121.2531 166° South 481 554 45,000 49 Climbing Seattle Center
Thu 02:33:08 PM 44.4886 -121.2083 166° South 487 560 45,000  Level Seattle Center
Thu 02:34:10 PM 44.3403 -121.1592 167° South 488 562 45,000  Level Seattle Center
Thu 02:35:11 PM 44.2069 -121.1128 166° South 490 564 45,000  Level Seattle Center
Thu 02:36:13 PM 44.0742 -121.0689 167° South 491 565 45,000  Level Seattle Center
Thu 02:37:14 PM 43.9425 -121.0217 166° South 491 565 45,000  Level Seattle Center
Thu 02:38:16 PM 43.8114 -120.9772 166° South 491 565 45,000  Level Seattle Center
Thu 02:39:17 PM 43.6808 -120.9356 167° South 488 562 45,000  Level Seattle Center
Thu 02:40:19 PM 43.5364 -120.8931 168° South 486 559 45,000  Level Seattle Center
Thu 02:41:20 PM 43.4036 -120.8492 166° South 486 559 45,000  Level Seattle Center
Thu 02:42:22 PM 43.2714 -120.8058 167° South 487 560 45,000  Level Seattle Center
Thu 02:43:23 PM 43.1372 -120.7611 166° South 491 565 45,000  Level Seattle Center
Thu 02:44:25 PM 43.0019 -120.7183 167° South 494 568 45,000  Level Seattle Center
Thu 02:45:26 PM 42.8408 -120.6656 166° South 495 570 45,000  Level Seattle Center
Thu 02:46:28 PM 42.7086 -120.6250 167° South 487 560 45,000  Level Seattle Center
Thu 02:47:29 PM 42.5764 -120.5833 167° South 487 560 45,000  Level Seattle Center
Thu 02:48:31 PM 42.4436 -120.5428 167° South 487 560 45,000  Level Seattle Center
Thu 02:49:32 PM 42.3089 -120.5103 170° South 487 560 45,000  Level Seattle Center
Thu 02:50:34 PM 42.1753 -120.4803 171° South 487 560 45,000  Level Seattle Center
Thu 02:51:35 PM 42.0425 -120.4506 171° South 485 558 45,000  Level Seattle Center
Thu 02:52:37 PM 41.9100 -120.4186 170° South 483 556 45,000  Level Seattle Center
Thu 02:53:38 PM 41.7783 -120.3886 170° South 482 555 45,000  Level Seattle Center
Thu 02:54:39 PM 41.6439 -120.3581 170° South 486 559 45,000  Level Seattle Center
Thu 02:55:41 PM 41.4831 -120.3222 171° South 489 563 45,000  Level Seattle Center
Thu 02:56:42 PM 41.3494 -120.2914 170° South 489 563 45,000  Level Seattle Center
Thu 02:57:44 PM 41.2167 -120.2628 171° South 485 558 45,000  Level Seattle Center
Thu 02:58:45 PM 41.0839 -120.2319 170° South 485 558 45,000  Level Seattle Center
Thu 02:59:48 PM 40.9525 -120.2036 171° South 483 556 45,000  Level Seattle Center
Thu 03:00:49 PM 40.8192 -120.1736 170° South 483 556 45,000  Level Seattle Center
Thu 03:01:50 PM 40.6858 -120.1456 171° South 484 557 45,000  Level Seattle Center
Thu 03:02:52 PM 40.5528 -120.1231 173° South 484 557 45,000  Level Seattle Center
Thu 03:03:56 PM 40.4056 -120.1097 176° South 479 551 45,000  Level Oakland Center
Thu 03:04:58 PM 40.2483 -120.0950 176° South 475 547 45,000  Level Oakland Center
Thu 03:06:00 PM 40.1183 -120.0808 175° South 474 545 45,000  Level Oakland Center
Thu 03:07:01 PM 39.9897 -120.0683 176° South 471 542 45,000  Level Oakland Center
Thu 03:08:03 PM 39.8594 -120.0564 176° South 471 542 45,000  Level Oakland Center
Thu 03:09:04 PM 39.7289 -120.0442 176° South 471 542 45,000  Level Oakland Center
Thu 03:10:06 PM 39.5983 -120.0322 176° South 471 542 45,000  Level Oakland Center
Thu 03:11:08 PM 39.4717 -120.0197 176° South 464 534 45,000  Level Oakland Center
Thu 03:12:09 PM 39.3172 -120.0056 176° South 464 534 45,000  Level Oakland Center
Thu 03:13:11 PM 39.1903 -119.9925 175° South 464 534 45,000  Level Oakland Center
Thu 03:14:13 PM 39.0619 -119.9814 176° South 464 534 45,000  Level Oakland Center
Thu 03:15:14 PM 38.9381 -119.9694 176° South 464 534 45,000  Level Oakland Center
Thu 03:16:16 PM 38.8081 -119.9575 176° South 464 534 45,000  Level Oakland Center
Thu 03:17:18 PM 38.6789 -119.9456 176° South 464 534 45,000  Level Oakland Center
Thu 03:18:19 PM 38.5228 -119.9303 176° South 464 534 45,000  Level Oakland Center
Thu 03:19:21 PM 38.3922 -119.9186 176° South 464 534 45,000  Level Oakland Center
Thu 03:20:23 PM 38.2614 -119.9072 176° South 465 535 45,000  Level Oakland Center
Thu 03:21:24 PM 38.1300 -119.8942 176° South 469 540 45,000  Level Oakland Center
Thu 03:22:26 PM 37.9992 -119.8825 176° South 469 540 45,000  Level Oakland Center
Thu 03:23:28 PM 37.8669 -119.8706 176° South 469 540 45,000  Level Oakland Center
Thu 03:24:29 PM 37.7336 -119.8511 173° South 477 549 45,000  Level Oakland Center
Thu 03:25:31 PM 37.5981 -119.8347 175° South 482 555 45,000  Level Oakland Center
Thu 03:26:33 PM 37.4664 -119.8158 174° South 481 554 45,000  Level Oakland Center
Thu 03:27:34 PM 37.3208 -119.7944 173° South 481 554 45,000  Level Oakland Center
Thu 03:28:36 PM 37.1875 -119.7764 174° South 481 554 45,000  Level Oakland Center
Thu 03:29:37 PM 37.0536 -119.7581 174° South 481 554 45,000  Level Oakland Center
Thu 03:30:39 PM 36.9203 -119.7394 174° South 482 555 45,000 -290 Level Oakland Center
Thu 03:31:41 PM 36.7603 -119.7200 174° South 482 555 44,400 -732 Descending Oakland Center
Thu 03:32:42 PM 36.6281 -119.7014 174° South 481 554 43,500 -976 Descending Oakland Center
Thu 03:33:44 PM 36.4981 -119.6847 174° South 474 545 42,400 -1,065 Descending Oakland Center
Thu 03:34:46 PM 36.3739 -119.6667 173° South 454 522 41,300 -1,073 Descending Oakland Center
Thu 03:35:47 PM 36.2561 -119.6517 174° South 430 495 40,200 -1,073 Descending Oakland Center
Thu 03:36:49 PM 36.1333 -119.6347 174° South 438 504 39,100 -1,073 Descending Oakland Center
Thu 03:37:50 PM 36.0094 -119.6189 174° South 444 511 38,000 -1,122 Descending Oakland Center
Thu 03:38:52 PM 35.8844 -119.6181 180° South 449 517 36,800 -1,463 Descending Oakland Center
Thu 03:39:53 PM 35.7308 -119.6247 182° South 454 522 35,000 -1,645 Descending Oakland Center
Thu 03:40:56 PM 35.5992 -119.6292 182° South 469 540 33,400 -1,610 Descending Oakland Center
Thu 03:41:56 PM 35.4650 -119.6331 181° South 474 545 31,700 -1,770 Descending Oakland Center
Thu 03:42:58 PM 35.3289 -119.6397 182° South 481 554 29,800 -2,129 Descending Oakland Center
Thu 03:44:00 PM 35.1983 -119.5917 163° South 499 574 27,300 -2,480 Descending Oakland Center
Thu 03:45:28 PM 35.0397 -119.4567 145° Southeast 499 574 23,600 -2,480 Descending Los Angeles Center
Thu 03:46:30 PM 34.9300 -119.3650 146° Southeast 483 556 21,100 -2,565 Descending Los Angeles Center
Thu 03:47:32 PM 34.8114 -119.2614 144° Southeast 442 509 18,300 -2,468 Descending Los Angeles Center
Thu 03:48:34 PM 34.7114 -119.1786 146° Southeast 440 506 16,000 -2,226 Descending Los Angeles Center
Thu 03:49:36 PM 34.6117 -119.0953 145° Southeast 411 473 13,700 -1,984 Descending Los Angeles Center
Thu 03:50:38 PM 34.5333 -119.0300 146° Southeast 342 394 11,900 -1,440 Descending Los Angeles Center
Thu 03:51:41 PM 34.4642 -118.9697 144° Southeast 305 351 10,700 -1,248 Descending Los Angeles Center
Thu 03:52:43 PM 34.4011 -118.9169 145° Southeast 276 318 9,300 -1,597 Descending Los Angeles Center
Thu 03:53:45 PM 34.3728 -118.8356 113° Southeast 286 329 7,400 -1,597 Descending Los Angeles Center
Thu 03:54:47 PM 34.3811 -118.7436 84° East 276 318 6,000 -1,016 Descending Los Angeles Center
Thu 03:55:49 PM 34.3889 -118.6431 85° East 247 284 5,300 -726 Descending Los Angeles Center
Thu 03:56:51 PM 34.3828 -118.5683 96° East 222 255 4,500 -720 Descending Los Angeles Center
Thu 03:57:54 PM 34.3411 -118.5186 135° Southeast 216 249 3,800 -912 Descending Los Angeles Center
Thu 03:58:56 PM 34.2886 -118.4953 160° South 208 239 2,600 -1,065 Descending Los Angeles Center
Thu 03:59:58 PM 34.2453 -118.4944 179° South 168 193 1,600 -677 Descending Los Angeles Center
Thu 04:01:00 PM 34.1983 -118.4906 176° South 156 180 1,200 -387 Descending Los Angeles Center

Login

Don't have an account? Register now (free) for customized features, flight alerts, and more!